CheckWX is a tool to help pilots better visualize weather data.  It is not intended as a substitute for an official pre-flight weather briefing.

22:19:37 UTC

KMMU METAR
Morristown Municipal Airport
Morristown, New Jersey, USA
Current

35 mins ago

KMMU 222145Z 00000KTKT 10SM SKC 03/M06 A3043
Observed
Jan-22 @ 21:45 UTC
Visibility
10 SM
Flight Rules
VFR
Cloud Levels
  • Clear skies
Temperature
C / 37°F
Dewpoint
-6°C / 21°F
Humidity
52%
Altimeter
30.43" Hg
Pressure
1030.52 hPa
Previous

2 hours ago

KMMU 222045Z 27003KT 10SM FEW250 04/M07 A3041
Observed
Jan-22 @ 20:45 UTC
Wind
  • 270° at 3 KTS
Visibility
10 SM
Flight Rules
VFR
Cloud Levels
  • Few at 25,000' AGL
Temperature
C / 39°F
Dewpoint
-7°C / 19°F
Humidity
45%
Altimeter
30.41" Hg
Pressure
1029.82 hPa
Previous

3 hours ago

KMMU 221945Z 00000KT 10SM FEW250 04/M07 A3043
Observed
Jan-22 @ 19:45 UTC
Visibility
10 SM
Flight Rules
VFR
Cloud Levels
  • Few at 25,000' AGL
Temperature
C / 39°F
Dewpoint
-7°C / 19°F
Humidity
45%
Altimeter
30.43" Hg
Pressure
1030.52 hPa